createdAt,value
2023-05-25T00:02:24.422Z,9.70
2023-05-25T00:04:52.140Z,9.70
2023-05-25T00:07:19.001Z,9.70
2023-05-25T00:09:46.442Z,9.70
2023-05-25T00:12:14.319Z,9.60
2023-05-25T00:14:40.884Z,9.60
2023-05-25T00:17:09.990Z,9.60
2023-05-25T00:19:37.864Z,9.60
2023-05-25T00:22:04.691Z,9.60
2023-05-25T00:24:31.679Z,9.60
2023-05-25T00:26:58.586Z,9.50
2023-05-25T00:29:26.093Z,9.50
2023-05-25T00:31:53.292Z,9.50
2023-05-25T00:34:19.995Z,9.40
2023-05-25T00:36:49.936Z,9.50
2023-05-25T00:39:17.907Z,9.50
2023-05-25T00:41:45.739Z,9.50
2023-05-25T00:44:16.568Z,9.40
2023-05-25T00:46:49.093Z,9.40
2023-05-25T00:49:17.057Z,9.40
2023-05-25T00:51:46.629Z,9.40
2023-05-25T00:54:17.923Z,9.40
2023-05-25T00:56:49.581Z,9.40
2023-05-25T00:59:24.597Z,9.30
2023-05-25T01:01:54.036Z,9.30
2023-05-25T01:04:22.608Z,9.30
2023-05-25T01:06:52.704Z,9.30
2023-05-25T01:09:21.566Z,9.30
2023-05-25T01:11:51.277Z,9.30
2023-05-25T01:14:21.836Z,9.30
2023-05-25T01:16:49.745Z,9.30
2023-05-25T01:19:17.022Z,9.20
2023-05-25T01:22:03.678Z,9.20
2023-05-25T01:24:40.875Z,9.20
2023-05-25T01:27:15.649Z,9.20
2023-05-25T01:29:45.506Z,9.20
2023-05-25T01:32:14.252Z,9.20
2023-05-25T01:34:43.483Z,9.10
2023-05-25T01:37:13.265Z,9.10
2023-05-25T01:39:41.203Z,9.10
2023-05-25T01:42:08.160Z,9.10
2023-05-25T01:44:35.761Z,9.10
2023-05-25T01:47:21.862Z,9.10
2023-05-25T01:50:07.548Z,9.00
2023-05-25T01:52:41.603Z,9.00
2023-05-25T01:55:17.312Z,9.00
2023-05-25T01:57:49.315Z,9.10
2023-05-25T02:00:18.049Z,9.10
2023-05-25T02:02:46.885Z,9.00
2023-05-25T02:05:13.992Z,9.00
2023-05-25T02:07:40.745Z,9.00
2023-05-25T02:10:07.725Z,9.00
2023-05-25T02:12:34.350Z,9.00
2023-05-25T02:15:00.942Z,9.00
2023-05-25T02:17:28.623Z,8.90
2023-05-25T02:19:56.090Z,8.90
2023-05-25T02:22:23.013Z,8.90
2023-05-25T02:24:49.597Z,8.90
2023-05-25T02:27:16.214Z,8.90
2023-05-25T02:29:42.896Z,8.90
2023-05-25T02:32:09.549Z,8.80
2023-05-25T02:34:36.116Z,8.80
2023-05-25T02:37:02.735Z,8.80
2023-05-25T02:39:29.398Z,8.80
2023-05-25T02:41:56.060Z,8.80
2023-05-25T02:44:22.694Z,8.70
2023-05-25T02:46:49.456Z,8.70
2023-05-25T02:49:16.088Z,8.70
2023-05-25T02:51:42.659Z,8.70
2023-05-25T02:54:09.175Z,8.60
2023-05-25T02:56:36.242Z,8.60
2023-05-25T02:59:02.773Z,8.60
2023-05-25T03:01:30.929Z,8.60
2023-05-25T03:03:57.807Z,8.50
2023-05-25T03:06:26.001Z,8.50
2023-05-25T03:08:52.724Z,8.50
2023-05-25T03:11:19.297Z,8.50
2023-05-25T03:13:45.993Z,8.50
2023-05-25T03:16:12.703Z,8.50
2023-05-25T03:18:39.325Z,8.50
2023-05-25T03:21:06.177Z,8.50
2023-05-25T03:23:32.798Z,8.50
2023-05-25T03:25:59.973Z,8.40
2023-05-25T03:28:26.596Z,8.50
2023-05-25T03:30:53.196Z,8.50
2023-05-25T03:33:19.770Z,8.40
2023-05-25T03:35:46.956Z,8.40
2023-05-25T03:38:13.580Z,8.40
2023-05-25T03:40:40.134Z,8.50
2023-05-25T03:43:06.745Z,8.50
2023-05-25T03:45:33.339Z,8.40
2023-05-25T03:47:59.972Z,8.50
2023-05-25T03:50:26.620Z,8.50
2023-05-25T03:52:53.310Z,8.50
2023-05-25T03:55:19.981Z,8.50
2023-05-25T03:57:46.595Z,8.50
2023-05-25T04:00:37.924Z,8.50
2023-05-25T04:03:04.984Z,8.60
2023-05-25T04:05:31.745Z,8.60
2023-05-25T04:07:59.216Z,8.60
2023-05-25T04:10:25.897Z,8.60
2023-05-25T04:12:52.444Z,8.60
2023-05-25T04:15:19.020Z,8.60
2023-05-25T04:17:45.667Z,8.70
2023-05-25T04:20:12.934Z,8.70
2023-05-25T04:22:39.654Z,8.70
2023-05-25T04:25:07.635Z,8.80
2023-05-25T04:27:34.470Z,8.80
2023-05-25T04:30:01.442Z,8.80
2023-05-25T04:32:29.910Z,8.90
2023-05-25T04:34:56.710Z,8.90
2023-05-25T04:37:27.061Z,8.90
2023-05-25T04:39:53.992Z,9.00
2023-05-25T04:42:23.858Z,9.00
2023-05-25T04:44:53.208Z,9.10
2023-05-25T04:47:19.754Z,9.10
2023-05-25T04:49:46.434Z,9.20
2023-05-25T04:52:13.186Z,9.20
2023-05-25T04:54:39.855Z,9.30
2023-05-25T04:57:06.459Z,9.30
2023-05-25T04:59:33.143Z,9.40
2023-05-25T05:01:59.975Z,9.50
2023-05-25T05:04:26.616Z,9.60
2023-05-25T05:06:55.737Z,9.70
2023-05-25T05:09:23.968Z,9.80
2023-05-25T05:11:50.756Z,10.00
2023-05-25T05:14:17.427Z,10.10
2023-05-25T05:16:44.059Z,10.20
2023-05-25T05:19:10.810Z,10.30
2023-05-25T05:21:37.347Z,10.40
2023-05-25T05:24:04.117Z,10.50
2023-05-25T05:26:36.128Z,10.60
2023-05-25T05:29:11.043Z,10.60
2023-05-25T05:31:37.782Z,10.70
2023-05-25T05:34:04.484Z,10.80
2023-05-25T05:36:42.061Z,10.90
2023-05-25T05:39:15.602Z,11.10
2023-05-25T05:41:45.107Z,11.10
2023-05-25T05:44:12.240Z,11.20
2023-05-25T05:46:38.861Z,11.30
2023-05-25T05:49:05.462Z,11.40
2023-05-25T05:51:32.829Z,11.50
2023-05-25T05:53:59.378Z,11.60
2023-05-25T05:56:27.016Z,11.70
2023-05-25T05:58:54.478Z,11.80
2023-05-25T06:01:22.688Z,11.90
2023-05-25T06:03:49.606Z,12.00
2023-05-25T06:06:16.421Z,12.20
2023-05-25T06:08:43.366Z,12.30
2023-05-25T06:11:09.901Z,12.40
2023-05-25T06:13:36.497Z,12.60
2023-05-25T06:16:03.135Z,12.70
2023-05-25T06:18:29.762Z,12.90
2023-05-25T06:20:56.409Z,13.00
2023-05-25T06:23:23.033Z,13.10
2023-05-25T06:25:53.682Z,13.20
2023-05-25T06:28:20.356Z,13.20
2023-05-25T06:30:46.979Z,13.40
2023-05-25T06:33:13.666Z,13.50
2023-05-25T06:35:40.290Z,13.60
2023-05-25T06:38:06.900Z,13.80
2023-05-25T06:40:33.549Z,14.00
2023-05-25T06:43:00.311Z,14.30
2023-05-25T06:45:26.918Z,14.50
2023-05-25T06:47:53.624Z,14.80
2023-05-25T06:50:20.373Z,15.00
2023-05-25T06:52:47.281Z,15.20
2023-05-25T06:55:13.892Z,15.50
2023-05-25T06:57:41.133Z,15.60
2023-05-25T07:00:12.038Z,15.80
2023-05-25T07:02:39.089Z,16.10
2023-05-25T07:05:06.191Z,16.20
2023-05-25T07:07:33.195Z,16.40
2023-05-25T07:09:59.853Z,16.60
2023-05-25T07:12:26.520Z,17.00
2023-05-25T07:14:53.247Z,17.30
2023-05-25T07:17:20.202Z,17.50
2023-05-25T07:19:48.570Z,17.70
2023-05-25T07:22:17.061Z,18.10
2023-05-25T07:24:43.704Z,18.50
2023-05-25T07:27:10.338Z,19.20
2023-05-25T07:29:36.911Z,20.10
2023-05-25T07:32:03.628Z,20.90
2023-05-25T07:34:30.320Z,21.80
2023-05-25T07:36:56.980Z,22.80
2023-05-25T07:39:23.563Z,23.40
2023-05-25T07:41:50.254Z,23.70
2023-05-25T07:44:16.940Z,23.50
2023-05-25T07:46:43.658Z,23.20
2023-05-25T07:49:15.716Z,22.90
2023-05-25T07:51:44.640Z,22.60
2023-05-25T07:54:11.583Z,22.00
2023-05-25T07:56:38.886Z,21.70
2023-05-25T07:59:06.108Z,21.40
2023-05-25T08:01:32.735Z,21.50
2023-05-25T08:03:59.494Z,21.90
2023-05-25T08:06:26.793Z,22.00
2023-05-25T08:08:53.456Z,22.10
2023-05-25T08:11:24.800Z,22.50
2023-05-25T08:13:51.524Z,22.80
2023-05-25T08:16:18.940Z,23.10
2023-05-25T08:18:46.710Z,23.50
2023-05-25T08:21:13.783Z,23.90
2023-05-25T08:23:42.342Z,25.20
2023-05-25T08:26:28.574Z,26.50
2023-05-25T08:28:56.688Z,28.00
2023-05-25T08:31:23.446Z,29.70
2023-05-25T08:33:50.159Z,29.70
2023-05-25T08:36:16.770Z,31.00
2023-05-25T08:38:43.448Z,31.90
2023-05-25T08:41:11.903Z,32.60
2023-05-25T08:43:38.516Z,32.50
2023-05-25T08:46:07.005Z,33.20
2023-05-25T08:48:41.076Z,33.30
2023-05-25T08:51:11.240Z,33.60
2023-05-25T08:53:40.636Z,34.20
2023-05-25T08:56:12.293Z,34.20
2023-05-25T08:58:52.766Z,33.60
2023-05-25T09:01:21.762Z,33.50
2023-05-25T09:03:50.168Z,34.00
2023-05-25T09:06:17.254Z,34.40
2023-05-25T09:08:44.925Z,34.10
2023-05-25T09:11:16.207Z,34.40
2023-05-25T09:13:43.772Z,34.60
2023-05-25T09:16:11.219Z,34.70
2023-05-25T09:18:38.319Z,34.70
2023-05-25T09:21:05.110Z,35.40
2023-05-25T09:23:32.289Z,36.00
2023-05-25T09:25:59.201Z,35.50
2023-05-25T09:28:27.595Z,35.50
2023-05-25T09:30:54.672Z,35.60
2023-05-25T09:33:21.430Z,35.50
2023-05-25T09:35:48.585Z,35.50
2023-05-25T09:38:16.765Z,35.60
2023-05-25T09:40:44.166Z,35.10
2023-05-25T09:43:17.208Z,36.00
2023-05-25T09:45:48.977Z,36.20
2023-05-25T09:48:15.864Z,36.40
2023-05-25T09:50:43.095Z,36.50
2023-05-25T09:53:10.930Z,36.10
2023-05-25T09:55:52.070Z,36.20
2023-05-25T09:58:19.483Z,36.20
2023-05-25T10:00:46.418Z,36.40
2023-05-25T10:03:15.180Z,36.70
2023-05-25T10:05:42.095Z,36.60
2023-05-25T10:08:10.068Z,36.80
2023-05-25T10:10:37.617Z,36.60
2023-05-25T10:13:07.998Z,37.00
2023-05-25T10:15:37.414Z,37.30
2023-05-25T10:18:08.135Z,36.80
2023-05-25T10:20:35.532Z,37.30
2023-05-25T10:23:10.701Z,37.10
2023-05-25T10:25:44.242Z,37.10
2023-05-25T10:28:28.628Z,37.00
2023-05-25T10:30:57.573Z,36.90
2023-05-25T10:33:24.515Z,36.90
2023-05-25T10:36:08.656Z,36.80
2023-05-25T10:38:39.257Z,36.70
2023-05-25T10:41:07.827Z,36.90
2023-05-25T10:43:34.566Z,37.00
2023-05-25T10:46:01.754Z,36.90
2023-05-25T10:48:38.842Z,36.90
2023-05-25T10:51:07.736Z,36.80
2023-05-25T10:53:35.922Z,36.80
2023-05-25T10:56:04.726Z,37.00
2023-05-25T10:58:32.892Z,37.30
2023-05-25T11:01:14.136Z,37.00
2023-05-25T11:03:44.055Z,36.80
2023-05-25T11:06:15.542Z,36.70
2023-05-25T11:08:56.165Z,36.70
2023-05-25T11:11:43.459Z,36.10
2023-05-25T11:14:23.674Z,36.40
2023-05-25T11:17:13.788Z,36.50
2023-05-25T11:19:44.603Z,36.40
2023-05-25T11:22:16.228Z,36.10
2023-05-25T11:24:45.104Z,36.00
2023-05-25T11:27:11.828Z,35.90
2023-05-25T11:29:40.026Z,36.00
2023-05-25T11:32:14.154Z,36.30
2023-05-25T11:34:47.126Z,35.80
2023-05-25T11:37:17.347Z,35.60
2023-05-25T11:39:53.423Z,35.20
2023-05-25T11:42:21.669Z,35.60
2023-05-25T11:44:48.187Z,35.60
2023-05-25T11:47:18.855Z,35.00
2023-05-25T11:49:47.153Z,35.20
2023-05-25T11:52:14.716Z,34.80
2023-05-25T11:54:41.510Z,34.30
2023-05-25T11:57:25.358Z,33.60
2023-05-25T12:00:06.965Z,32.70
2023-05-25T12:02:41.789Z,31.40
2023-05-25T12:05:11.190Z,30.20
2023-05-25T12:07:44.393Z,29.50
2023-05-25T12:10:12.556Z,28.80
2023-05-25T12:12:47.796Z,28.20
2023-05-25T12:15:19.045Z,27.80
2023-05-25T12:17:47.829Z,27.40
2023-05-25T12:20:16.869Z,26.80
2023-05-25T12:22:45.492Z,26.70
2023-05-25T12:25:13.371Z,26.50
2023-05-25T12:27:41.111Z,26.30
2023-05-25T12:30:10.180Z,26.00
2023-05-25T12:33:03.744Z,25.90
2023-05-25T12:35:45.087Z,25.80
2023-05-25T12:38:19.553Z,25.60
2023-05-25T12:40:46.516Z,25.60
2023-05-25T12:43:14.482Z,25.50
2023-05-25T12:45:43.319Z,25.40
2023-05-25T12:48:10.575Z,25.10
2023-05-25T12:50:37.536Z,25.10
2023-05-25T12:53:05.131Z,25.00
2023-05-25T12:55:33.354Z,25.00
2023-05-25T12:58:05.973Z,25.00
2023-05-25T13:00:40.836Z,24.90
2023-05-25T13:03:07.933Z,24.90
2023-05-25T13:05:36.938Z,24.90
2023-05-25T13:08:05.317Z,25.00
2023-05-25T13:10:33.090Z,25.00
2023-05-25T13:13:00.589Z,25.10
2023-05-25T13:15:27.663Z,25.10
2023-05-25T13:17:55.075Z,25.20
2023-05-25T13:20:23.778Z,25.10
2023-05-25T13:22:52.433Z,25.20
2023-05-25T13:25:19.561Z,25.20
2023-05-25T13:27:48.316Z,25.00
2023-05-25T13:30:15.858Z,24.90
2023-05-25T13:32:43.490Z,24.80
2023-05-25T13:35:41.292Z,24.70
2023-05-25T13:38:07.908Z,24.60
2023-05-25T13:40:34.507Z,24.40
2023-05-25T13:43:02.022Z,24.40
2023-05-25T13:45:28.672Z,24.50
2023-05-25T13:47:55.385Z,24.60
2023-05-25T13:50:22.327Z,24.50
2023-05-25T13:52:49.135Z,24.50
2023-05-25T13:55:15.689Z,24.40
2023-05-25T13:57:42.438Z,24.40
2023-05-25T14:00:09.400Z,24.30
2023-05-25T14:02:36.660Z,24.30
2023-05-25T14:05:03.522Z,24.10
2023-05-25T14:07:30.171Z,24.10
2023-05-25T14:09:58.109Z,24.10
2023-05-25T14:12:25.736Z,24.00
2023-05-25T14:14:52.389Z,24.00
2023-05-25T14:17:19.022Z,23.90
2023-05-25T14:19:45.672Z,23.90
2023-05-25T14:22:14.327Z,23.80
2023-05-25T14:24:42.048Z,23.80
2023-05-25T14:27:08.835Z,23.70
2023-05-25T14:29:35.593Z,23.70
2023-05-25T14:32:02.376Z,23.70
2023-05-25T14:34:29.671Z,23.70
2023-05-25T14:36:56.538Z,23.70
2023-05-25T14:39:23.257Z,23.60
2023-05-25T14:41:49.956Z,23.60
2023-05-25T14:44:16.685Z,23.60
2023-05-25T14:46:43.494Z,23.60
2023-05-25T14:49:10.401Z,23.60
2023-05-25T14:51:37.672Z,23.60
2023-05-25T14:54:06.132Z,23.50
2023-05-25T14:56:32.805Z,23.30
2023-05-25T14:58:59.447Z,23.30
2023-05-25T15:01:26.234Z,23.40
2023-05-25T15:03:53.095Z,23.40
2023-05-25T15:06:20.010Z,23.40
2023-05-25T15:08:46.666Z,23.30
2023-05-25T15:11:13.243Z,23.30
2023-05-25T15:13:40.832Z,23.30
2023-05-25T15:16:11.091Z,23.20
2023-05-25T15:18:37.742Z,23.00
2023-05-25T15:21:04.449Z,23.00
2023-05-25T15:23:31.892Z,23.00
2023-05-25T15:26:02.970Z,22.80
2023-05-25T15:28:30.454Z,22.80
2023-05-25T15:30:57.048Z,22.80
2023-05-25T15:33:29.954Z,22.90
2023-05-25T15:36:02.652Z,22.90
2023-05-25T15:38:29.281Z,22.80
2023-05-25T15:40:56.026Z,22.80
2023-05-25T15:43:22.651Z,22.80
2023-05-25T15:45:49.206Z,22.80
2023-05-25T15:48:16.084Z,22.80
2023-05-25T15:50:42.659Z,22.70
2023-05-25T15:53:10.488Z,22.70
2023-05-25T15:55:37.107Z,22.70
2023-05-25T15:58:03.676Z,22.60
2023-05-25T16:00:30.357Z,22.60
2023-05-25T16:02:58.040Z,22.50
2023-05-25T16:05:24.678Z,22.50
2023-05-25T16:07:51.224Z,22.50
2023-05-25T16:10:17.830Z,22.40
2023-05-25T16:12:44.762Z,22.30
2023-05-25T16:15:11.366Z,22.20
2023-05-25T16:17:37.957Z,22.10
2023-05-25T16:20:06.605Z,22.10
2023-05-25T16:22:33.263Z,22.10
2023-05-25T16:24:59.846Z,22.10
2023-05-25T16:27:26.447Z,22.00
2023-05-25T16:29:52.999Z,21.90
2023-05-25T16:32:19.673Z,21.90
2023-05-25T16:34:46.314Z,21.80
2023-05-25T16:37:12.954Z,21.80
2023-05-25T16:39:39.585Z,21.70
2023-05-25T16:42:06.688Z,21.60
2023-05-25T16:44:33.277Z,21.60
2023-05-25T16:46:59.816Z,21.50
2023-05-25T16:49:26.373Z,21.50
2023-05-25T16:51:52.892Z,21.40
2023-05-25T16:54:19.491Z,21.30
2023-05-25T16:56:46.245Z,21.30
2023-05-25T16:59:12.888Z,21.20
2023-05-25T17:01:39.472Z,21.10
2023-05-25T17:04:06.315Z,21.10
2023-05-25T17:06:33.339Z,21.10
2023-05-25T17:09:00.824Z,21.00
2023-05-25T17:11:27.953Z,20.90
2023-05-25T17:13:54.548Z,20.80
2023-05-25T17:16:21.330Z,20.80
2023-05-25T17:18:48.618Z,20.70
2023-05-25T17:21:15.267Z,20.70
2023-05-25T17:23:41.965Z,20.60
2023-05-25T17:26:08.583Z,20.50
2023-05-25T17:28:35.365Z,20.50
2023-05-25T17:31:02.288Z,20.40
2023-05-25T17:33:28.976Z,20.30
2023-05-25T17:35:55.951Z,20.30
2023-05-25T17:38:22.580Z,20.20
2023-05-25T17:40:50.223Z,20.10
2023-05-25T17:43:17.055Z,20.10
2023-05-25T17:45:43.875Z,20.00
2023-05-25T17:48:10.693Z,19.90
2023-05-25T17:50:37.353Z,19.80
2023-05-25T17:53:04.214Z,19.70
2023-05-25T17:55:30.844Z,19.70
2023-05-25T17:57:57.368Z,19.50
2023-05-25T18:00:25.929Z,19.50
2023-05-25T18:02:52.767Z,19.40
2023-05-25T18:05:19.483Z,19.40
2023-05-25T18:07:46.045Z,19.30
2023-05-25T18:10:14.454Z,19.20
2023-05-25T18:12:41.433Z,19.20
2023-05-25T18:15:09.564Z,19.10
2023-05-25T18:17:36.120Z,19.00
2023-05-25T18:20:02.863Z,18.90
2023-05-25T18:22:29.573Z,18.80
2023-05-25T18:24:56.184Z,18.80
2023-05-25T18:27:22.800Z,18.70
2023-05-25T18:29:49.415Z,18.60
2023-05-25T18:32:16.010Z,18.50
2023-05-25T18:34:44.851Z,18.40
2023-05-25T18:37:11.946Z,18.40
2023-05-25T18:39:38.477Z,18.20
2023-05-25T18:42:05.330Z,18.20
2023-05-25T18:44:31.988Z,18.00
2023-05-25T18:46:59.014Z,18.00
2023-05-25T18:49:26.143Z,17.80
2023-05-25T18:51:52.788Z,17.70
2023-05-25T18:54:19.526Z,17.60
2023-05-25T18:56:46.158Z,17.50
2023-05-25T18:59:12.836Z,17.50
2023-05-25T19:01:39.575Z,17.30
2023-05-25T19:04:06.350Z,17.30
2023-05-25T19:06:33.462Z,17.20
2023-05-25T19:09:00.260Z,17.10
2023-05-25T19:11:26.930Z,17.00
2023-05-25T19:13:53.529Z,16.90
2023-05-25T19:16:20.165Z,16.80
2023-05-25T19:18:47.589Z,16.80
2023-05-25T19:21:14.217Z,16.70
2023-05-25T19:23:41.709Z,16.60
2023-05-25T19:26:08.377Z,16.60
2023-05-25T19:28:34.981Z,16.50
2023-05-25T19:31:01.665Z,16.40
2023-05-25T19:33:28.834Z,16.30
2023-05-25T19:35:55.467Z,16.30
2023-05-25T19:38:23.313Z,16.20
2023-05-25T19:40:51.401Z,16.10
2023-05-25T19:43:18.018Z,16.10
2023-05-25T19:45:44.905Z,16.00
2023-05-25T19:48:11.782Z,16.00
2023-05-25T19:50:38.403Z,15.90
2023-05-25T19:53:05.099Z,15.80
2023-05-25T19:55:32.209Z,15.80
2023-05-25T19:57:58.783Z,15.70
2023-05-25T20:00:27.028Z,15.60
2023-05-25T20:02:54.496Z,15.60
2023-05-25T20:05:21.350Z,15.50
2023-05-25T20:07:48.207Z,15.50
2023-05-25T20:10:14.858Z,15.40
2023-05-25T20:12:41.491Z,15.40
2023-05-25T20:15:08.440Z,15.30
2023-05-25T20:17:35.345Z,15.30
2023-05-25T20:20:03.713Z,15.20
2023-05-25T20:22:31.581Z,15.10
2023-05-25T20:24:59.630Z,15.10
2023-05-25T20:27:26.882Z,15.00
2023-05-25T20:29:54.670Z,15.00
2023-05-25T20:32:21.361Z,14.90
2023-05-25T20:34:48.112Z,14.90
2023-05-25T20:37:14.721Z,14.90
2023-05-25T20:39:41.349Z,14.80
2023-05-25T20:42:08.106Z,14.80
2023-05-25T20:44:34.703Z,14.80
2023-05-25T20:47:01.258Z,14.70
2023-05-25T20:49:27.892Z,14.70
2023-05-25T20:51:54.460Z,14.70
2023-05-25T20:54:21.043Z,14.60
2023-05-25T20:56:48.257Z,14.60
2023-05-25T20:59:14.887Z,14.60
2023-05-25T21:01:41.570Z,14.50
2023-05-25T21:04:08.289Z,14.50
2023-05-25T21:06:35.015Z,14.50
2023-05-25T21:09:01.847Z,14.40
2023-05-25T21:11:28.849Z,14.40
2023-05-25T21:13:55.603Z,14.30
2023-05-25T21:16:22.317Z,14.30
2023-05-25T21:18:48.919Z,14.30
2023-05-25T21:21:16.113Z,14.20
2023-05-25T21:23:42.765Z,14.20
2023-05-25T21:26:09.324Z,14.10
2023-05-25T21:28:35.931Z,14.10
2023-05-25T21:31:02.637Z,14.10
2023-05-25T21:33:33.438Z,14.10
2023-05-25T21:35:59.972Z,14.00
2023-05-25T21:38:26.619Z,14.00
2023-05-25T21:40:53.150Z,13.90
2023-05-25T21:43:20.178Z,13.80
2023-05-25T21:45:47.386Z,13.80
2023-05-25T21:48:14.056Z,13.70
2023-05-25T21:50:40.976Z,13.70
2023-05-25T21:53:07.657Z,13.60
2023-05-25T21:55:34.249Z,13.60
2023-05-25T21:58:00.893Z,13.60
2023-05-25T22:00:27.504Z,13.50
2023-05-25T22:02:54.219Z,13.50
2023-05-25T22:05:21.003Z,13.40
2023-05-25T22:07:47.633Z,13.40
2023-05-25T22:10:14.367Z,13.40
2023-05-25T22:12:40.993Z,13.30
2023-05-25T22:15:08.211Z,13.30
2023-05-25T22:17:34.907Z,13.30
2023-05-25T22:22:31.036Z,13.20
2023-05-25T22:24:57.616Z,13.20
2023-05-25T22:27:24.211Z,13.10
2023-05-25T22:29:50.844Z,13.10
2023-05-25T22:32:17.482Z,13.00
2023-05-25T22:34:44.202Z,13.00
2023-05-25T22:37:11.480Z,13.00
2023-05-25T22:39:38.016Z,12.90
2023-05-25T22:42:04.937Z,12.90
2023-05-25T22:44:31.511Z,12.90
2023-05-25T22:46:58.282Z,12.90
2023-05-25T22:49:24.975Z,12.80
2023-05-25T22:51:51.642Z,12.80
2023-05-25T22:54:19.242Z,12.80
2023-05-25T22:56:46.031Z,12.80
2023-05-25T22:59:13.484Z,12.70
2023-05-25T23:01:40.221Z,12.70
2023-05-25T23:04:07.132Z,12.70
2023-05-25T23:06:33.817Z,12.70
2023-05-25T23:09:00.546Z,12.60
2023-05-25T23:11:27.250Z,12.60
2023-05-25T23:13:54.629Z,12.60
2023-05-25T23:16:21.458Z,12.60
2023-05-25T23:18:48.098Z,12.60
2023-05-25T23:21:14.716Z,12.50
2023-05-25T23:23:41.347Z,12.40
2023-05-25T23:26:08.046Z,12.50
2023-05-25T23:28:35.698Z,12.40
2023-05-25T23:31:02.349Z,12.40
2023-05-25T23:33:29.196Z,12.40
2023-05-25T23:35:56.074Z,12.40
2023-05-25T23:38:22.736Z,12.40
2023-05-25T23:40:49.369Z,12.40
2023-05-25T23:43:16.261Z,12.30
2023-05-25T23:45:43.318Z,12.30
2023-05-25T23:48:10.387Z,12.30
2023-05-25T23:50:37.097Z,12.30
2023-05-25T23:53:03.690Z,12.30
2023-05-25T23:55:30.544Z,12.20
2023-05-25T23:57:57.176Z,12.20
